sensor_id;sensor_type;location;lat;lon;timestamp;temperature;humidity
1453;DHT22;720;47.738;7.998;2022-12-07T00:00:55;4.60;98.40
1453;DHT22;720;47.738;7.998;2022-12-07T00:03:21;4.60;98.40
1453;DHT22;720;47.738;7.998;2022-12-07T00:05:46;4.60;98.30
1453;DHT22;720;47.738;7.998;2022-12-07T00:08:12;4.60;98.30
1453;DHT22;720;47.738;7.998;2022-12-07T00:10:38;4.60;98.30
1453;DHT22;720;47.738;7.998;2022-12-07T00:13:03;4.60;98.30
1453;DHT22;720;47.738;7.998;2022-12-07T00:15:29;4.50;98.20
1453;DHT22;720;47.738;7.998;2022-12-07T00:17:54;4.40;98.40
1453;DHT22;720;47.738;7.998;2022-12-07T00:20:20;4.40;98.50
1453;DHT22;720;47.738;7.998;2022-12-07T00:22:46;4.30;98.50
1453;DHT22;720;47.738;7.998;2022-12-07T00:25:11;4.30;98.70
1453;DHT22;720;47.738;7.998;2022-12-07T00:27:37;4.30;98.90
1453;DHT22;720;47.738;7.998;2022-12-07T00:30:03;4.30;98.80
1453;DHT22;720;47.738;7.998;2022-12-07T00:32:28;4.20;98.70
1453;DHT22;720;47.738;7.998;2022-12-07T00:34:54;4.00;99.30
1453;DHT22;720;47.738;7.998;2022-12-07T00:37:19;3.90;99.40
1453;DHT22;720;47.738;7.998;2022-12-07T00:39:46;3.90;99.70
1453;DHT22;720;47.738;7.998;2022-12-07T00:42:11;3.90;99.70
1453;DHT22;720;47.738;7.998;2022-12-07T00:44:37;4.00;99.80
1453;DHT22;720;47.738;7.998;2022-12-07T00:47:03;4.10;99.80
1453;DHT22;720;47.738;7.998;2022-12-07T00:49:28;4.20;99.70
1453;DHT22;720;47.738;7.998;2022-12-07T00:51:54;4.10;99.20
1453;DHT22;720;47.738;7.998;2022-12-07T00:54:20;4.00;99.20
1453;DHT22;720;47.738;7.998;2022-12-07T00:56:45;4.00;99.40
1453;DHT22;720;47.738;7.998;2022-12-07T00:59:12;4.00;99.50
1453;DHT22;720;47.738;7.998;2022-12-07T01:01:40;4.00;99.60
1453;DHT22;720;47.738;7.998;2022-12-07T01:04:06;4.10;99.70
1453;DHT22;720;47.738;7.998;2022-12-07T01:06:32;4.20;99.70
1453;DHT22;720;47.738;7.998;2022-12-07T01:08:58;4.40;99.50
1453;DHT22;720;47.738;7.998;2022-12-07T01:11:26;4.40;99.20
1453;DHT22;720;47.738;7.998;2022-12-07T01:13:54;4.40;99.00
1453;DHT22;720;47.738;7.998;2022-12-07T01:16:21;4.40;99.00
1453;DHT22;720;47.738;7.998;2022-12-07T01:18:49;4.40;98.90
1453;DHT22;720;47.738;7.998;2022-12-07T01:21:35;4.40;98.90
1453;DHT22;720;47.738;7.998;2022-12-07T01:24:04;4.40;98.80
1453;DHT22;720;47.738;7.998;2022-12-07T01:26:30;4.40;98.90
1453;DHT22;720;47.738;7.998;2022-12-07T01:28:56;4.40;98.90
1453;DHT22;720;47.738;7.998;2022-12-07T01:31:25;4.40;98.90
1453;DHT22;720;47.738;7.998;2022-12-07T01:33:53;4.40;98.90
1453;DHT22;720;47.738;7.998;2022-12-07T01:36:30;4.50;98.90
1453;DHT22;720;47.738;7.998;2022-12-07T01:38:58;4.50;98.90
1453;DHT22;720;47.738;7.998;2022-12-07T01:41:27;4.40;98.90
1453;DHT22;720;47.738;7.998;2022-12-07T01:44:16;4.40;99.00
1453;DHT22;720;47.738;7.998;2022-12-07T01:52:20;4.50;98.90
1453;DHT22;720;47.738;7.998;2022-12-07T01:54:44;4.40;98.80
1453;DHT22;720;47.738;7.998;2022-12-07T01:57:12;4.40;98.90
1453;DHT22;720;47.738;7.998;2022-12-07T01:59:39;4.40;99.10
1453;DHT22;720;47.738;7.998;2022-12-07T02:02:11;4.40;99.10
1453;DHT22;720;47.738;7.998;2022-12-07T02:04:39;4.40;99.10
1453;DHT22;720;47.738;7.998;2022-12-07T02:07:05;4.40;98.90
1453;DHT22;720;47.738;7.998;2022-12-07T02:09:31;4.40;98.90
1453;DHT22;720;47.738;7.998;2022-12-07T02:11:57;4.40;99.00
1453;DHT22;720;47.738;7.998;2022-12-07T02:14:23;4.50;99.00
1453;DHT22;720;47.738;7.998;2022-12-07T02:25:44;4.40;99.10
1453;DHT22;720;47.738;7.998;2022-12-07T02:30:12;4.40;99.20
1453;DHT22;720;47.738;7.998;2022-12-07T02:32:56;4.30;99.10
1453;DHT22;720;47.738;7.998;2022-12-07T02:40:53;4.40;99.30
1453;DHT22;720;47.738;7.998;2022-12-07T02:43:24;4.30;99.00
1453;DHT22;720;47.738;7.998;2022-12-07T02:45:52;4.30;99.20
1453;DHT22;720;47.738;7.998;2022-12-07T02:48:20;4.30;99.30
1453;DHT22;720;47.738;7.998;2022-12-07T02:50:50;4.30;99.40
1453;DHT22;720;47.738;7.998;2022-12-07T02:53:33;4.30;99.30
1453;DHT22;720;47.738;7.998;2022-12-07T03:07:14;4.50;99.00
1453;DHT22;720;47.738;7.998;2022-12-07T03:10:22;4.50;99.00
1453;DHT22;720;47.738;7.998;2022-12-07T03:15:46;4.30;99.00
1453;DHT22;720;47.738;7.998;2022-12-07T03:18:18;4.20;99.20
1453;DHT22;720;47.738;7.998;2022-12-07T03:20:45;4.20;99.30
1453;DHT22;720;47.738;7.998;2022-12-07T03:23:15;4.20;99.50
1453;DHT22;720;47.738;7.998;2022-12-07T03:25:49;4.30;99.60
1453;DHT22;720;47.738;7.998;2022-12-07T03:28:19;4.30;99.50
1453;DHT22;720;47.738;7.998;2022-12-07T03:30:51;4.40;99.50
1453;DHT22;720;47.738;7.998;2022-12-07T03:33:20;4.40;99.20
1453;DHT22;720;47.738;7.998;2022-12-07T03:36:00;4.40;99.10
1453;DHT22;720;47.738;7.998;2022-12-07T03:38:44;4.40;99.20
1453;DHT22;720;47.738;7.998;2022-12-07T03:41:23;4.40;99.10
1453;DHT22;720;47.738;7.998;2022-12-07T03:43:50;4.40;99.00
1453;DHT22;720;47.738;7.998;2022-12-07T03:54:13;4.20;99.70
1453;DHT22;720;47.738;7.998;2022-12-07T03:56:42;4.30;99.70
1453;DHT22;720;47.738;7.998;2022-12-07T03:59:09;4.30;99.60
1453;DHT22;720;47.738;7.998;2022-12-07T04:01:36;4.40;99.40
1453;DHT22;720;47.738;7.998;2022-12-07T04:04:01;4.40;99.10
1453;DHT22;720;47.738;7.998;2022-12-07T04:06:27;4.40;99.30
1453;DHT22;720;47.738;7.998;2022-12-07T04:08:53;4.30;99.30
1453;DHT22;720;47.738;7.998;2022-12-07T04:11:18;4.20;99.30
1453;DHT22;720;47.738;7.998;2022-12-07T04:13:44;4.10;99.10
1453;DHT22;720;47.738;7.998;2022-12-07T04:16:28;4.20;99.00
1453;DHT22;720;47.738;7.998;2022-12-07T04:18:54;4.30;99.10
1453;DHT22;720;47.738;7.998;2022-12-07T04:21:19;4.20;99.20
1453;DHT22;720;47.738;7.998;2022-12-07T04:23:45;4.10;99.30
1453;DHT22;720;47.738;7.998;2022-12-07T04:26:10;4.10;99.60
1453;DHT22;720;47.738;7.998;2022-12-07T04:28:36;4.10;99.80
1453;DHT22;720;47.738;7.998;2022-12-07T04:31:02;4.10;99.80
1453;DHT22;720;47.738;7.998;2022-12-07T04:33:27;4.20;99.90
1453;DHT22;720;47.738;7.998;2022-12-07T04:35:53;4.20;99.80
1453;DHT22;720;47.738;7.998;2022-12-07T04:38:18;4.20;99.80
1453;DHT22;720;47.738;7.998;2022-12-07T04:40:44;4.30;99.80
1453;DHT22;720;47.738;7.998;2022-12-07T04:43:10;4.30;99.70
1453;DHT22;720;47.738;7.998;2022-12-07T04:45:35;4.30;99.60
1453;DHT22;720;47.738;7.998;2022-12-07T04:48:01;4.30;99.50
1453;DHT22;720;47.738;7.998;2022-12-07T04:50:27;4.30;99.50
1453;DHT22;720;47.738;7.998;2022-12-07T04:52:52;4.30;99.70
1453;DHT22;720;47.738;7.998;2022-12-07T04:55:18;4.30;99.70
1453;DHT22;720;47.738;7.998;2022-12-07T04:57:44;4.30;99.80
1453;DHT22;720;47.738;7.998;2022-12-07T05:00:10;4.30;99.60
1453;DHT22;720;47.738;7.998;2022-12-07T05:02:35;4.30;99.60
1453;DHT22;720;47.738;7.998;2022-12-07T05:05:01;4.30;99.70
1453;DHT22;720;47.738;7.998;2022-12-07T05:07:27;4.30;99.70
1453;DHT22;720;47.738;7.998;2022-12-07T05:09:52;4.30;99.70
1453;DHT22;720;47.738;7.998;2022-12-07T05:12:18;4.40;99.60
1453;DHT22;720;47.738;7.998;2022-12-07T05:14:43;4.40;99.50
1453;DHT22;720;47.738;7.998;2022-12-07T05:17:09;4.30;99.50
1453;DHT22;720;47.738;7.998;2022-12-07T05:19:36;4.30;99.50
1453;DHT22;720;47.738;7.998;2022-12-07T05:22:02;4.40;99.40
1453;DHT22;720;47.738;7.998;2022-12-07T05:24:28;4.40;99.20
1453;DHT22;720;47.738;7.998;2022-12-07T05:26:53;4.40;99.10
1453;DHT22;720;47.738;7.998;2022-12-07T05:29:19;4.30;99.00
1453;DHT22;720;47.738;7.998;2022-12-07T05:31:45;4.20;99.10
1453;DHT22;720;47.738;7.998;2022-12-07T05:34:11;4.10;99.40
1453;DHT22;720;47.738;7.998;2022-12-07T05:36:37;4.10;99.50
1453;DHT22;720;47.738;7.998;2022-12-07T05:39:03;4.10;99.60
1453;DHT22;720;47.738;7.998;2022-12-07T05:41:29;4.10;99.70
1453;DHT22;720;47.738;7.998;2022-12-07T05:44:13;4.10;99.80
1453;DHT22;720;47.738;7.998;2022-12-07T05:46:39;4.10;99.80
1453;DHT22;720;47.738;7.998;2022-12-07T05:49:05;4.10;99.70
1453;DHT22;720;47.738;7.998;2022-12-07T05:51:30;4.10;99.60
1453;DHT22;720;47.738;7.998;2022-12-07T05:53:56;4.00;99.70
1453;DHT22;720;47.738;7.998;2022-12-07T05:56:22;4.00;99.90
1453;DHT22;720;47.738;7.998;2022-12-07T05:58:48;4.10;99.90
1453;DHT22;720;47.738;7.998;2022-12-07T06:01:32;4.00;99.80
1453;DHT22;720;47.738;7.998;2022-12-07T06:03:58;4.00;99.80
1453;DHT22;720;47.738;7.998;2022-12-07T06:06:23;4.00;99.80
1453;DHT22;720;47.738;7.998;2022-12-07T06:08:49;4.00;99.80
1453;DHT22;720;47.738;7.998;2022-12-07T06:11:15;4.10;99.50
1453;DHT22;720;47.738;7.998;2022-12-07T06:13:59;4.10;99.50
1453;DHT22;720;47.738;7.998;2022-12-07T06:16:24;4.00;99.50
1453;DHT22;720;47.738;7.998;2022-12-07T06:18:50;3.90;99.50
1453;DHT22;720;47.738;7.998;2022-12-07T06:21:15;3.90;99.60
1453;DHT22;720;47.738;7.998;2022-12-07T06:23:41;3.90;99.70
1453;DHT22;720;47.738;7.998;2022-12-07T06:26:07;3.90;99.70
1453;DHT22;720;47.738;7.998;2022-12-07T06:28:37;3.90;99.70
1453;DHT22;720;47.738;7.998;2022-12-07T06:31:10;3.90;99.50
1453;DHT22;720;47.738;7.998;2022-12-07T06:33:36;3.90;99.40
1453;DHT22;720;47.738;7.998;2022-12-07T06:36:02;3.80;99.30
1453;DHT22;720;47.738;7.998;2022-12-07T06:38:27;3.70;99.30
1453;DHT22;720;47.738;7.998;2022-12-07T06:40:53;3.70;99.30
1453;DHT22;720;47.738;7.998;2022-12-07T06:43:19;3.70;99.20
1453;DHT22;720;47.738;7.998;2022-12-07T06:45:44;3.70;99.30
1453;DHT22;720;47.738;7.998;2022-12-07T06:48:10;3.70;99.30
1453;DHT22;720;47.738;7.998;2022-12-07T06:50:36;3.70;99.10
1453;DHT22;720;47.738;7.998;2022-12-07T06:53:01;3.70;99.10
1453;DHT22;720;47.738;7.998;2022-12-07T06:55:27;3.60;99.10
1453;DHT22;720;47.738;7.998;2022-12-07T06:57:53;3.60;99.20
1453;DHT22;720;47.738;7.998;2022-12-07T07:00:19;3.50;99.30
1453;DHT22;720;47.738;7.998;2022-12-07T07:02:45;3.60;99.40
1453;DHT22;720;47.738;7.998;2022-12-07T07:05:10;3.70;99.40
1453;DHT22;720;47.738;7.998;2022-12-07T07:07:36;3.70;99.40
1453;DHT22;720;47.738;7.998;2022-12-07T07:10:03;3.60;99.30
1453;DHT22;720;47.738;7.998;2022-12-07T07:12:28;3.60;99.30
1453;DHT22;720;47.738;7.998;2022-12-07T07:14:54;3.60;99.40
1453;DHT22;720;47.738;7.998;2022-12-07T07:17:19;3.70;99.50
1453;DHT22;720;47.738;7.998;2022-12-07T07:19:45;3.70;99.40
1453;DHT22;720;47.738;7.998;2022-12-07T07:22:11;3.70;99.30
1453;DHT22;720;47.738;7.998;2022-12-07T07:24:36;3.70;99.20
1453;DHT22;720;47.738;7.998;2022-12-07T07:27:02;3.70;98.60
1453;DHT22;720;47.738;7.998;2022-12-07T07:29:27;3.60;98.40
1453;DHT22;720;47.738;7.998;2022-12-07T07:31:53;3.60;98.30
1453;DHT22;720;47.738;7.998;2022-12-07T07:34:19;3.50;98.10
1453;DHT22;720;47.738;7.998;2022-12-07T07:36:44;3.30;97.70
1453;DHT22;720;47.738;7.998;2022-12-07T07:39:10;3.20;97.90
1453;DHT22;720;47.738;7.998;2022-12-07T07:41:38;3.10;98.10
1453;DHT22;720;47.738;7.998;2022-12-07T07:44:03;3.10;98.40
1453;DHT22;720;47.738;7.998;2022-12-07T07:46:29;3.10;98.50
1453;DHT22;720;47.738;7.998;2022-12-07T07:48:55;3.00;98.60
1453;DHT22;720;47.738;7.998;2022-12-07T07:51:21;3.10;98.70
1453;DHT22;720;47.738;7.998;2022-12-07T07:53:47;3.10;98.80
1453;DHT22;720;47.738;7.998;2022-12-07T07:56:12;3.20;98.90
1453;DHT22;720;47.738;7.998;2022-12-07T07:58:38;3.20;98.70
1453;DHT22;720;47.738;7.998;2022-12-07T08:01:05;3.20;98.70
1453;DHT22;720;47.738;7.998;2022-12-07T08:03:31;3.20;98.70
1453;DHT22;720;47.738;7.998;2022-12-07T08:05:57;3.20;98.90
1453;DHT22;720;47.738;7.998;2022-12-07T08:08:22;3.30;98.80
1453;DHT22;720;47.738;7.998;2022-12-07T08:10:48;3.40;97.90
1453;DHT22;720;47.738;7.998;2022-12-07T08:13:16;3.30;97.70
1453;DHT22;720;47.738;7.998;2022-12-07T08:15:46;3.30;97.60
1453;DHT22;720;47.738;7.998;2022-12-07T08:18:13;3.40;97.80
1453;DHT22;720;47.738;7.998;2022-12-07T08:20:39;3.50;97.70
1453;DHT22;720;47.738;7.998;2022-12-07T08:23:06;3.50;97.30
1453;DHT22;720;47.738;7.998;2022-12-07T08:25:32;3.50;97.20
1453;DHT22;720;47.738;7.998;2022-12-07T08:27:59;3.40;97.10
1453;DHT22;720;47.738;7.998;2022-12-07T08:30:28;3.40;97.20
1453;DHT22;720;47.738;7.998;2022-12-07T08:32:54;3.40;97.20
1453;DHT22;720;47.738;7.998;2022-12-07T08:35:20;3.30;97.10
1453;DHT22;720;47.738;7.998;2022-12-07T08:37:46;3.20;97.30
1453;DHT22;720;47.738;7.998;2022-12-07T08:40:13;3.10;97.50
1453;DHT22;720;47.738;7.998;2022-12-07T08:42:42;3.10;97.80
1453;DHT22;720;47.738;7.998;2022-12-07T08:45:12;3.10;98.00
1453;DHT22;720;47.738;7.998;2022-12-07T08:47:48;3.10;98.00
1453;DHT22;720;47.738;7.998;2022-12-07T08:50:15;3.20;98.40
1453;DHT22;720;47.738;7.998;2022-12-07T08:52:41;3.50;98.80
1453;DHT22;720;47.738;7.998;2022-12-07T08:55:10;3.90;97.50
1453;DHT22;720;47.738;7.998;2022-12-07T08:57:36;4.10;96.90
1453;DHT22;720;47.738;7.998;2022-12-07T09:00:04;4.20;96.80
1453;DHT22;720;47.738;7.998;2022-12-07T09:02:31;4.40;97.00
1453;DHT22;720;47.738;7.998;2022-12-07T09:04:56;5.00;97.50
1453;DHT22;720;47.738;7.998;2022-12-07T09:07:23;6.20;95.90
1453;DHT22;720;47.738;7.998;2022-12-07T09:09:48;8.10;93.60
1453;DHT22;720;47.738;7.998;2022-12-07T09:12:14;10.20;87.70
1453;DHT22;720;47.738;7.998;2022-12-07T09:14:40;12.20;78.80
1453;DHT22;720;47.738;7.998;2022-12-07T09:17:11;13.40;71.10
1453;DHT22;720;47.738;7.998;2022-12-07T09:19:37;14.10;66.80
1453;DHT22;720;47.738;7.998;2022-12-07T09:22:04;14.70;63.50
1453;DHT22;720;47.738;7.998;2022-12-07T09:24:30;15.40;60.40
1453;DHT22;720;47.738;7.998;2022-12-07T09:26:57;16.20;56.90
1453;DHT22;720;47.738;7.998;2022-12-07T09:29:23;16.80;54.40
1453;DHT22;720;47.738;7.998;2022-12-07T09:31:49;17.40;53.30
1453;DHT22;720;47.738;7.998;2022-12-07T09:34:14;18.00;51.70
1453;DHT22;720;47.738;7.998;2022-12-07T09:36:40;18.50;48.80
1453;DHT22;720;47.738;7.998;2022-12-07T09:39:07;19.10;47.00
1453;DHT22;720;47.738;7.998;2022-12-07T09:41:41;19.30;46.40
1453;DHT22;720;47.738;7.998;2022-12-07T09:44:13;19.60;45.30
1453;DHT22;720;47.738;7.998;2022-12-07T09:46:41;19.50;44.80
1453;DHT22;720;47.738;7.998;2022-12-07T09:49:18;19.80;43.70
1453;DHT22;720;47.738;7.998;2022-12-07T09:51:45;18.90;43.00
1453;DHT22;720;47.738;7.998;2022-12-07T09:54:16;18.40;43.70
1453;DHT22;720;47.738;7.998;2022-12-07T09:56:44;17.90;44.00
1453;DHT22;720;47.738;7.998;2022-12-07T09:59:16;17.80;43.10
1453;DHT22;720;47.738;7.998;2022-12-07T10:01:44;17.30;44.00
1453;DHT22;720;47.738;7.998;2022-12-07T10:04:16;16.70;44.60
1453;DHT22;720;47.738;7.998;2022-12-07T10:06:43;15.90;45.00
1453;DHT22;720;47.738;7.998;2022-12-07T10:09:12;15.40;47.40
1453;DHT22;720;47.738;7.998;2022-12-07T10:12:07;15.30;47.50
1453;DHT22;720;47.738;7.998;2022-12-07T10:14:36;14.90;48.30
1453;DHT22;720;47.738;7.998;2022-12-07T10:17:02;14.50;48.30
1453;DHT22;720;47.738;7.998;2022-12-07T10:19:29;13.90;48.60
1453;DHT22;720;47.738;7.998;2022-12-07T10:22:11;13.90;49.10
1453;DHT22;720;47.738;7.998;2022-12-07T10:24:38;14.20;48.80
1453;DHT22;720;47.738;7.998;2022-12-07T10:27:18;13.80;48.10
1453;DHT22;720;47.738;7.998;2022-12-07T10:29:49;12.90;48.80
1453;DHT22;720;47.738;7.998;2022-12-07T10:34:41;11.70;50.70
1453;DHT22;720;47.738;7.998;2022-12-07T10:39:53;11.00;51.10
1453;DHT22;720;47.738;7.998;2022-12-07T10:42:29;10.10;52.20
1453;DHT22;720;47.738;7.998;2022-12-07T10:45:14;9.80;54.70
1453;DHT22;720;47.738;7.998;2022-12-07T10:53:38;7.00;63.20
1453;DHT22;720;47.738;7.998;2022-12-07T10:56:34;6.70;68.60
1453;DHT22;720;47.738;7.998;2022-12-07T11:07:27;5.90;76.90
1453;DHT22;720;47.738;7.998;2022-12-07T11:10:06;6.00;79.30
1453;DHT22;720;47.738;7.998;2022-12-07T11:15:36;5.80;80.00
1453;DHT22;720;47.738;7.998;2022-12-07T11:18:24;5.80;81.50
1453;DHT22;720;47.738;7.998;2022-12-07T11:24:08;5.80;82.00
1453;DHT22;720;47.738;7.998;2022-12-07T11:35:22;4.90;81.40
1453;DHT22;720;47.738;7.998;2022-12-07T11:37:55;4.90;78.60
1453;DHT22;720;47.738;7.998;2022-12-07T11:40:30;5.00;77.40
1453;DHT22;720;47.738;7.998;2022-12-07T11:43:21;5.30;74.80
1453;DHT22;720;47.738;7.998;2022-12-07T11:48:29;5.80;64.10
1453;DHT22;720;47.738;7.998;2022-12-07T11:51:01;6.00;64.60
1453;DHT22;720;47.738;7.998;2022-12-07T11:56:24;5.60;59.40
1453;DHT22;720;47.738;7.998;2022-12-07T11:58:58;5.40;59.70
1453;DHT22;720;47.738;7.998;2022-12-07T12:06:39;5.00;61.40
1453;DHT22;720;47.738;7.998;2022-12-07T12:22:10;4.80;59.60
1453;DHT22;720;47.738;7.998;2022-12-07T12:24:39;4.80;62.30
1453;DHT22;720;47.738;7.998;2022-12-07T12:27:08;5.00;64.30
1453;DHT22;720;47.738;7.998;2022-12-07T12:29:39;5.20;66.20
1453;DHT22;720;47.738;7.998;2022-12-07T12:42:54;5.50;75.50
1453;DHT22;720;47.738;7.998;2022-12-07T12:45:28;5.60;70.90
1453;DHT22;720;47.738;7.998;2022-12-07T12:48:27;5.80;67.40
1453;DHT22;720;47.738;7.998;2022-12-07T12:54:10;6.10;74.00
1453;DHT22;720;47.738;7.998;2022-12-07T12:57:12;6.10;77.30
1453;DHT22;720;47.738;7.998;2022-12-07T13:02:27;6.10;78.20
1453;DHT22;720;47.738;7.998;2022-12-07T13:07:51;5.90;82.30
1453;DHT22;720;47.738;7.998;2022-12-07T13:15:44;5.40;86.50
1453;DHT22;720;47.738;7.998;2022-12-07T13:20:56;4.80;89.40
1453;DHT22;720;47.738;7.998;2022-12-07T13:23:35;4.80;90.30
1453;DHT22;720;47.738;7.998;2022-12-07T13:31:50;5.20;90.60
1453;DHT22;720;47.738;7.998;2022-12-07T13:36:57;5.10;90.80
1453;DHT22;720;47.738;7.998;2022-12-07T13:39:24;5.00;91.10
1453;DHT22;720;47.738;7.998;2022-12-07T13:41:55;4.90;91.40
1453;DHT22;720;47.738;7.998;2022-12-07T13:44:23;4.80;91.70
1453;DHT22;720;47.738;7.998;2022-12-07T13:49:46;4.70;92.70
1453;DHT22;720;47.738;7.998;2022-12-07T13:52:39;4.80;92.50
1453;DHT22;720;47.738;7.998;2022-12-07T13:57:32;4.80;92.90
1453;DHT22;720;47.738;7.998;2022-12-07T14:00:04;4.80;92.90
1453;DHT22;720;47.738;7.998;2022-12-07T14:02:34;4.80;93.30
1453;DHT22;720;47.738;7.998;2022-12-07T14:05:14;4.90;93.20
1453;DHT22;720;47.738;7.998;2022-12-07T14:08:01;5.00;93.10
1453;DHT22;720;47.738;7.998;2022-12-07T14:10:34;5.10;93.00
1453;DHT22;720;47.738;7.998;2022-12-07T14:13:02;5.10;93.00
1453;DHT22;720;47.738;7.998;2022-12-07T14:15:33;5.00;93.00
1453;DHT22;720;47.738;7.998;2022-12-07T14:18:01;5.00;93.10
1453;DHT22;720;47.738;7.998;2022-12-07T14:20:33;4.90;93.30
1453;DHT22;720;47.738;7.998;2022-12-07T14:22:59;4.80;93.40
1453;DHT22;720;47.738;7.998;2022-12-07T14:25:48;4.80;93.70
1453;DHT22;720;47.738;7.998;2022-12-07T14:28:32;4.70;93.90
1453;DHT22;720;47.738;7.998;2022-12-07T14:30:59;4.60;94.00
1453;DHT22;720;47.738;7.998;2022-12-07T14:33:25;4.60;94.10
1453;DHT22;720;47.738;7.998;2022-12-07T14:35:51;4.50;94.30
1453;DHT22;720;47.738;7.998;2022-12-07T14:38:25;4.40;94.40
1453;DHT22;720;47.738;7.998;2022-12-07T14:40:52;4.30;94.60
1453;DHT22;720;47.738;7.998;2022-12-07T14:43:19;4.20;95.00
1453;DHT22;720;47.738;7.998;2022-12-07T14:45:45;4.20;94.90
1453;DHT22;720;47.738;7.998;2022-12-07T14:48:12;4.20;95.00
1453;DHT22;720;47.738;7.998;2022-12-07T14:50:42;4.20;95.00
1453;DHT22;720;47.738;7.998;2022-12-07T14:53:15;4.20;95.20
1453;DHT22;720;47.738;7.998;2022-12-07T14:55:41;4.10;95.20
1453;DHT22;720;47.738;7.998;2022-12-07T14:58:13;4.20;95.30
1453;DHT22;720;47.738;7.998;2022-12-07T15:00:39;4.30;95.20
1453;DHT22;720;47.738;7.998;2022-12-07T15:03:05;4.20;95.20
1453;DHT22;720;47.738;7.998;2022-12-07T15:05:31;4.20;95.10
1453;DHT22;720;47.738;7.998;2022-12-07T15:07:56;4.20;95.10
1453;DHT22;720;47.738;7.998;2022-12-07T15:10:25;4.20;95.10
1453;DHT22;720;47.738;7.998;2022-12-07T15:12:59;4.20;94.90
1453;DHT22;720;47.738;7.998;2022-12-07T15:15:45;4.20;95.00
1453;DHT22;720;47.738;7.998;2022-12-07T15:18:10;4.20;95.00
1453;DHT22;720;47.738;7.998;2022-12-07T15:20:36;4.10;95.20
1453;DHT22;720;47.738;7.998;2022-12-07T15:23:01;4.10;95.20
1453;DHT22;720;47.738;7.998;2022-12-07T15:25:27;4.20;95.30
1453;DHT22;720;47.738;7.998;2022-12-07T15:27:53;4.20;95.30
1453;DHT22;720;47.738;7.998;2022-12-07T15:30:18;4.30;95.20
1453;DHT22;720;47.738;7.998;2022-12-07T15:32:52;4.30;95.10
1453;DHT22;720;47.738;7.998;2022-12-07T15:35:19;4.30;95.20
1453;DHT22;720;47.738;7.998;2022-12-07T15:37:45;4.20;95.10
1453;DHT22;720;47.738;7.998;2022-12-07T15:40:11;4.20;95.10
1453;DHT22;720;47.738;7.998;2022-12-07T15:42:37;4.20;95.30
1453;DHT22;720;47.738;7.998;2022-12-07T15:45:04;4.20;95.40
1453;DHT22;720;47.738;7.998;2022-12-07T15:47:33;4.30;95.40
1453;DHT22;720;47.738;7.998;2022-12-07T15:50:00;4.30;95.40
1453;DHT22;720;47.738;7.998;2022-12-07T15:52:26;4.40;95.30
1453;DHT22;720;47.738;7.998;2022-12-07T15:54:51;4.40;95.20
1453;DHT22;720;47.738;7.998;2022-12-07T15:57:17;4.30;95.30
1453;DHT22;720;47.738;7.998;2022-12-07T15:59:43;4.20;95.30
1453;DHT22;720;47.738;7.998;2022-12-07T16:02:09;4.10;95.50
1453;DHT22;720;47.738;7.998;2022-12-07T16:04:35;4.10;95.70
1453;DHT22;720;47.738;7.998;2022-12-07T16:07:01;4.10;95.90
1453;DHT22;720;47.738;7.998;2022-12-07T16:09:27;4.20;96.00
1453;DHT22;720;47.738;7.998;2022-12-07T16:11:53;4.10;96.00
1453;DHT22;720;47.738;7.998;2022-12-07T16:14:18;4.20;96.10
1453;DHT22;720;47.738;7.998;2022-12-07T16:16:44;4.30;95.90
1453;DHT22;720;47.738;7.998;2022-12-07T16:19:10;4.30;95.60
1453;DHT22;720;47.738;7.998;2022-12-07T16:21:36;4.40;95.50
1453;DHT22;720;47.738;7.998;2022-12-07T16:24:02;4.30;95.60
1453;DHT22;720;47.738;7.998;2022-12-07T16:26:28;4.30;95.60
1453;DHT22;720;47.738;7.998;2022-12-07T16:28:54;4.30;95.70
1453;DHT22;720;47.738;7.998;2022-12-07T16:31:23;4.20;95.70
1453;DHT22;720;47.738;7.998;2022-12-07T16:33:53;4.20;95.90
1453;DHT22;720;47.738;7.998;2022-12-07T16:36:19;4.20;96.10
1453;DHT22;720;47.738;7.998;2022-12-07T16:38:46;4.10;96.20
1453;DHT22;720;47.738;7.998;2022-12-07T16:41:12;4.10;96.30
1453;DHT22;720;47.738;7.998;2022-12-07T16:43:38;4.20;96.50
1453;DHT22;720;47.738;7.998;2022-12-07T16:46:04;4.20;96.50
1453;DHT22;720;47.738;7.998;2022-12-07T16:48:30;4.20;96.40
1453;DHT22;720;47.738;7.998;2022-12-07T16:50:56;4.20;96.30
1453;DHT22;720;47.738;7.998;2022-12-07T16:53:23;4.30;96.10
1453;DHT22;720;47.738;7.998;2022-12-07T16:55:49;4.30;96.00
1453;DHT22;720;47.738;7.998;2022-12-07T16:58:16;4.20;96.10
1453;DHT22;720;47.738;7.998;2022-12-07T17:00:43;4.20;96.30
1453;DHT22;720;47.738;7.998;2022-12-07T17:03:09;4.20;96.80
1453;DHT22;720;47.738;7.998;2022-12-07T17:05:40;4.20;96.60
1453;DHT22;720;47.738;7.998;2022-12-07T17:08:06;4.20;96.50
1453;DHT22;720;47.738;7.998;2022-12-07T17:10:34;4.20;96.50
1453;DHT22;720;47.738;7.998;2022-12-07T17:13:01;4.10;96.50
1453;DHT22;720;47.738;7.998;2022-12-07T17:15:27;4.10;96.60
1453;DHT22;720;47.738;7.998;2022-12-07T17:17:57;4.20;96.60
1453;DHT22;720;47.738;7.998;2022-12-07T17:20:25;4.20;96.50
1453;DHT22;720;47.738;7.998;2022-12-07T17:22:52;4.20;96.30
1453;DHT22;720;47.738;7.998;2022-12-07T17:25:18;4.10;96.30
1453;DHT22;720;47.738;7.998;2022-12-07T17:27:45;4.00;96.30
1453;DHT22;720;47.738;7.998;2022-12-07T17:30:12;4.00;96.50
1453;DHT22;720;47.738;7.998;2022-12-07T17:32:38;4.00;96.50
1453;DHT22;720;47.738;7.998;2022-12-07T17:35:04;4.00;96.40
1453;DHT22;720;47.738;7.998;2022-12-07T17:37:31;3.90;96.20
1453;DHT22;720;47.738;7.998;2022-12-07T17:39:57;3.90;96.20
1453;DHT22;720;47.738;7.998;2022-12-07T17:42:23;3.70;96.30
1453;DHT22;720;47.738;7.998;2022-12-07T17:45:04;3.60;96.60
1453;DHT22;720;47.738;7.998;2022-12-07T17:47:30;3.60;96.70
1453;DHT22;720;47.738;7.998;2022-12-07T17:49:56;3.60;96.50
1453;DHT22;720;47.738;7.998;2022-12-07T17:52:22;3.40;96.40
1453;DHT22;720;47.738;7.998;2022-12-07T17:55:06;3.20;96.50
1453;DHT22;720;47.738;7.998;2022-12-07T17:57:32;3.10;96.70
1453;DHT22;720;47.738;7.998;2022-12-07T17:59:57;3.00;96.90
1453;DHT22;720;47.738;7.998;2022-12-07T18:02:23;3.00;97.00
1453;DHT22;720;47.738;7.998;2022-12-07T18:04:49;2.90;97.00
1453;DHT22;720;47.738;7.998;2022-12-07T18:07:14;2.90;97.00
1453;DHT22;720;47.738;7.998;2022-12-07T18:09:40;2.70;96.90
1453;DHT22;720;47.738;7.998;2022-12-07T18:12:06;2.60;97.00
1453;DHT22;720;47.738;7.998;2022-12-07T18:14:33;2.40;97.10
1453;DHT22;720;47.738;7.998;2022-12-07T18:16:59;2.30;97.50
1453;DHT22;720;47.738;7.998;2022-12-07T18:19:24;2.30;97.60
1453;DHT22;720;47.738;7.998;2022-12-07T18:21:50;2.20;97.60
1453;DHT22;720;47.738;7.998;2022-12-07T18:24:16;2.20;97.60
1453;DHT22;720;47.738;7.998;2022-12-07T18:26:43;2.20;97.50
1453;DHT22;720;47.738;7.998;2022-12-07T18:29:15;2.10;97.40
1453;DHT22;720;47.738;7.998;2022-12-07T18:31:41;2.10;97.40
1453;DHT22;720;47.738;7.998;2022-12-07T18:34:10;2.00;97.30
1453;DHT22;720;47.738;7.998;2022-12-07T18:36:40;2.00;97.20
1453;DHT22;720;47.738;7.998;2022-12-07T18:39:11;1.80;97.30
1453;DHT22;720;47.738;7.998;2022-12-07T18:41:38;1.80;97.60
1453;DHT22;720;47.738;7.998;2022-12-07T18:44:04;1.80;97.70
1453;DHT22;720;47.738;7.998;2022-12-07T18:46:31;1.80;97.60
1453;DHT22;720;47.738;7.998;2022-12-07T18:48:57;1.70;97.60
1453;DHT22;720;47.738;7.998;2022-12-07T18:51:23;1.70;97.40
1453;DHT22;720;47.738;7.998;2022-12-07T18:53:48;1.70;97.40
1453;DHT22;720;47.738;7.998;2022-12-07T18:56:16;1.60;97.30
1453;DHT22;720;47.738;7.998;2022-12-07T18:58:47;1.60;97.30
1453;DHT22;720;47.738;7.998;2022-12-07T19:01:31;1.50;97.40
1453;DHT22;720;47.738;7.998;2022-12-07T19:03:57;1.40;97.50
1453;DHT22;720;47.738;7.998;2022-12-07T19:06:23;1.30;97.60